Time;durP1;ratioP1;P1;durP2;ratioP2;P2;SDS_P1;SDS_P2;PMS_P1;PMS_P2;Temp;Humidity;BMP_temperature;BMP_pressure;BME280_temperature;BME280_humidity;BME280_pressure;Samples;Min_cycle;Max_cycle;Signal;HPM_P1;HPM_P2
2023/09/23 00:00:34;;;;;;;6.13;1.52;;;12.70;99.90;;;;;;5091285;28;20046;-84
2023/09/23 00:03:00;;;;;;;9.00;2.00;;;12.70;99.90;;;;;;5092383;28;20031;-84
2023/09/23 00:05:26;;;;;;;8.15;1.60;;;12.60;99.90;;;;;;5093360;28;20016;-85
2023/09/23 00:07:52;;;;;;;8.07;1.77;;;12.60;99.90;;;;;;5091117;28;20396;-86
2023/09/23 00:10:17;;;;;;;7.97;1.67;;;12.60;99.90;;;;;;5092227;28;20229;-85
2023/09/23 00:12:43;;;;;;;8.88;1.95;;;12.60;99.90;;;;;;5092225;28;20042;-85
2023/09/23 00:15:12;;;;;;;8.93;1.80;;;12.50;99.90;;;;;;5092358;28;20088;-85
2023/09/23 00:17:39;;;;;;;7.68;1.85;;;12.50;99.90;;;;;;5092095;28;20476;-85
2023/09/23 00:20:16;;;;;;;6.20;1.73;;;12.50;99.90;;;;;;5091940;28;20028;-85
2023/09/23 00:22:46;;;;;;;10.38;1.85;;;12.40;99.90;;;;;;5092141;28;20503;-85
2023/09/23 00:25:13;;;;;;;11.73;2.08;;;12.40;99.90;;;;;;5092095;28;20079;-86
2023/09/23 00:27:41;;;;;;;8.07;1.80;;;12.40;99.90;;;;;;5092163;28;20077;-86
2023/09/23 00:30:07;;;;;;;6.38;1.65;;;12.40;99.90;;;;;;5090437;28;20119;-86
2023/09/23 00:32:34;;;;;;;6.32;1.75;;;12.30;99.90;;;;;;5091411;28;20065;-85
2023/09/23 00:35:00;;;;;;;9.15;1.67;;;12.30;99.90;;;;;;5091810;28;20039;-83
2023/09/23 00:37:27;;;;;;;9.02;2.08;;;12.30;99.90;;;;;;5092657;28;20016;-85
2023/09/23 00:39:53;;;;;;;9.73;1.88;;;12.30;99.90;;;;;;5091837;28;20020;-86
2023/09/23 00:42:19;;;;;;;8.35;1.48;;;12.30;99.90;;;;;;5091703;28;20020;-86
2023/09/23 00:44:45;;;;;;;8.65;1.80;;;12.30;99.90;;;;;;5090330;28;20491;-85
2023/09/23 00:47:15;;;;;;;9.20;2.00;;;12.30;99.90;;;;;;5091404;28;20077;-86
2023/09/23 00:49:45;;;;;;;9.45;2.03;;;12.30;99.90;;;;;;5091903;28;20027;-86
2023/09/23 00:52:15;;;;;;;7.20;1.75;;;12.30;99.90;;;;;;5091604;28;20020;-86
2023/09/23 00:54:46;;;;;;;14.20;1.90;;;12.20;99.90;;;;;;5090199;28;20122;-85
2023/09/23 00:57:16;;;;;;;6.45;2.10;;;12.20;99.90;;;;;;5091578;28;20103;-86
2023/09/23 00:59:43;;;;;;;7.75;2.13;;;12.20;99.90;;;;;;5090420;28;20035;-85
2023/09/23 01:02:13;;;;;;;6.65;1.67;;;12.20;99.90;;;;;;5090353;28;20028;-86
2023/09/23 01:04:39;;;;;;;13.93;1.95;;;12.20;99.90;;;;;;5091153;28;20054;-85
2023/09/23 01:07:04;;;;;;;6.30;1.55;;;12.20;99.90;;;;;;5090455;28;20059;-85
2023/09/23 01:09:33;;;;;;;8.90;2.03;;;12.10;99.90;;;;;;5092024;28;20419;-84
2023/09/23 01:12:00;;;;;;;6.43;1.80;;;12.10;99.90;;;;;;5091995;28;20474;-84
2023/09/23 01:14:26;;;;;;;8.20;1.75;;;12.10;99.90;;;;;;5091357;28;20127;-84
2023/09/23 01:16:52;;;;;;;9.20;2.45;;;12.00;99.90;;;;;;5089784;28;20027;-85
2023/09/23 01:19:20;;;;;;;9.07;1.90;;;12.00;99.90;;;;;;5090709;28;20487;-86
2023/09/23 01:21:49;;;;;;;9.23;2.75;;;12.00;99.90;;;;;;5090859;28;20554;-85
2023/09/23 01:24:18;;;;;;;7.22;1.80;;;12.00;99.90;;;;;;5090757;28;20039;-84
2023/09/23 01:26:51;;;;;;;10.27;2.05;;;11.90;99.90;;;;;;5090651;28;20103;-84
2023/09/23 01:29:23;;;;;;;10.45;1.80;;;12.00;99.90;;;;;;5090836;28;20484;-85
2023/09/23 01:32:30;;;;;;;7.60;1.77;;;12.00;99.90;;;;;;5090636;28;20024;-84
2023/09/23 01:34:57;;;;;;;10.85;2.00;;;12.10;99.90;;;;;;5089504;28;20085;-84
2023/09/23 01:37:23;;;;;;;9.13;2.00;;;12.00;99.90;;;;;;5090505;28;20280;-84
2023/09/23 01:39:48;;;;;;;8.48;1.92;;;12.00;99.90;;;;;;5090701;28;20380;-85
2023/09/23 01:42:14;;;;;;;6.78;1.77;;;12.00;99.90;;;;;;5090478;28;20029;-84
2023/09/23 01:44:40;;;;;;;6.05;1.98;;;12.00;99.90;;;;;;5089170;28;20050;-84
2023/09/23 01:47:06;;;;;;;10.50;1.80;;;11.90;99.90;;;;;;5090557;28;20028;-86
2023/09/23 01:49:31;;;;;;;10.02;2.13;;;12.00;99.90;;;;;;5091438;28;20028;-85
2023/09/23 01:51:57;;;;;;;6.78;1.83;;;12.00;99.90;;;;;;5090266;28;20365;-85
2023/09/23 01:54:23;;;;;;;6.10;1.70;;;12.00;99.90;;;;;;5090207;28;20308;-83
2023/09/23 01:56:48;;;;;;;7.45;1.70;;;12.10;99.90;;;;;;5088997;28;20028;-85
2023/09/23 01:59:14;;;;;;;7.93;2.03;;;12.00;99.90;;;;;;5062291;28;20031;-83
2023/09/23 02:01:41;;;;;;;6.97;1.98;;;12.00;99.90;;;;;;5053701;28;21317;-83
2023/09/23 02:04:08;;;;;;;7.78;2.00;;;11.90;99.90;;;;;;5057846;28;20035;-84
2023/09/23 02:06:39;;;;;;;11.98;2.42;;;11.90;99.90;;;;;;5058786;28;20137;-84
2023/09/23 02:09:05;;;;;;;12.98;1.98;;;12.00;99.90;;;;;;5056930;28;20028;-84
2023/09/23 02:11:30;;;;;;;7.35;1.80;;;12.00;99.90;;;;;;5057740;28;20042;-84
2023/09/23 02:13:56;;;;;;;9.43;2.15;;;11.90;99.90;;;;;;5053449;28;20036;-83
2023/09/23 02:16:22;;;;;;;10.07;2.40;;;12.00;99.90;;;;;;5053349;28;20403;-84
2023/09/23 02:18:50;;;;;;;12.15;2.80;;;12.10;99.90;;;;;;5054070;28;20024;-85
2023/09/23 02:21:18;;;;;;;12.25;2.17;;;11.90;99.90;;;;;;5054744;28;20031;-86
2023/09/23 02:23:43;;;;;;;6.70;1.77;;;12.00;99.90;;;;;;5055211;28;20027;-83
2023/09/23 02:26:09;;;;;;;5.80;1.95;;;12.00;99.90;;;;;;5059904;28;20036;-86
2023/09/23 02:28:36;;;;;;;5.93;2.17;;;11.90;99.90;;;;;;5075085;28;20027;-86
2023/09/23 02:31:02;;;;;;;6.65;2.00;;;11.90;99.90;;;;;;5069228;28;20081;-87
2023/09/23 02:33:29;;;;;;;11.63;2.53;;;12.00;99.90;;;;;;5068130;28;20127;-85
2023/09/23 02:35:55;;;;;;;8.93;2.33;;;12.10;99.90;;;;;;5069444;28;20074;-85
2023/09/23 02:38:21;;;;;;;11.18;1.92;;;11.90;99.90;;;;;;5069642;28;20064;-86
2023/09/23 02:40:49;;;;;;;7.20;2.15;;;12.00;99.90;;;;;;5069545;28;20112;-87
2023/09/23 02:43:18;;;;;;;12.02;2.50;;;12.10;99.90;;;;;;5069544;28;20020;-86
2023/09/23 02:45:47;;;;;;;8.13;2.35;;;12.00;99.90;;;;;;5067989;28;20090;-86
2023/09/23 02:48:14;;;;;;;7.03;2.13;;;12.00;99.90;;;;;;5069389;28;20397;-87
2023/09/23 02:50:40;;;;;;;7.28;2.30;;;12.00;99.90;;;;;;5068160;28;20021;-86
2023/09/23 02:53:07;;;;;;;10.75;2.20;;;11.90;99.90;;;;;;5068829;28;20035;-86
2023/09/23 02:55:32;;;;;;;9.73;2.17;;;11.90;99.90;;;;;;5069947;28;20049;-86
2023/09/23 02:57:58;;;;;;;5.97;2.13;;;11.90;99.90;;;;;;5089661;28;20435;-87
2023/09/23 03:00:29;;;;;;;11.25;2.28;;;11.90;99.90;;;;;;5089543;28;20028;-85
2023/09/23 03:02:57;;;;;;;8.07;2.10;;;11.90;99.90;;;;;;5089444;28;20115;-85
2023/09/23 03:05:28;;;;;;;8.73;3.00;;;11.90;99.90;;;;;;5089549;28;20042;-85
2023/09/23 03:07:57;;;;;;;13.85;2.25;;;11.70;99.90;;;;;;5089608;28;20274;-86
2023/09/23 03:10:31;;;;;;;8.48;2.08;;;11.80;99.90;;;;;;5089406;28;20102;-86
2023/09/23 03:13:07;;;;;;;10.57;2.10;;;11.80;99.90;;;;;;5089419;28;20028;-86
2023/09/23 03:15:48;;;;;;;9.57;2.70;;;11.70;99.90;;;;;;5088069;28;20131;-88
2023/09/23 03:18:27;;;;;;;6.25;2.30;;;11.70;99.90;;;;;;5089551;28;20016;-86
2023/09/23 03:20:54;;;;;;;12.88;2.15;;;11.60;99.90;;;;;;5088021;28;20070;-86
2023/09/23 03:23:20;;;;;;;9.13;2.10;;;11.60;99.90;;;;;;5090634;28;20028;-85
2023/09/23 03:25:47;;;;;;;8.23;2.30;;;11.60;99.90;;;;;;5092211;28;20029;-87
2023/09/23 03:28:16;;;;;;;11.15;2.83;;;11.60;99.90;;;;;;5093417;28;20127;-87
2023/09/23 03:30:49;;;;;;;8.13;1.90;;;11.60;99.90;;;;;;5092149;28;20047;-87
2023/09/23 03:33:18;;;;;;;7.00;1.85;;;11.50;99.90;;;;;;5091932;28;20404;-86
2023/09/23 03:35:44;;;;;;;6.18;1.90;;;11.50;99.90;;;;;;5076592;28;20029;-87
2023/09/23 03:38:11;;;;;;;10.52;2.40;;;11.50;99.90;;;;;;5073115;28;20075;-84
2023/09/23 03:40:38;;;;;;;10.05;2.03;;;11.40;99.90;;;;;;5073722;28;20107;-87
2023/09/23 03:43:04;;;;;;;8.30;1.85;;;11.40;99.90;;;;;;5071649;28;20028;-85
2023/09/23 03:45:35;;;;;;;16.35;2.45;;;11.40;99.90;;;;;;5071502;28;20239;-86
2023/09/23 03:48:01;;;;;;;8.75;2.08;;;11.40;99.90;;;;;;5072666;28;20060;-87
2023/09/23 03:50:27;;;;;;;11.48;2.50;;;11.40;99.90;;;;;;5072806;28;20098;-86
2023/09/23 03:52:52;;;;;;;14.68;2.15;;;11.30;99.90;;;;;;5072615;28;20492;-85
2023/09/23 03:55:18;;;;;;;16.92;2.45;;;11.30;99.90;;;;;;5071265;28;20028;-87
2023/09/23 03:57:46;;;;;;;12.38;2.42;;;11.30;99.90;;;;;;5090524;28;20103;-87
2023/09/23 04:00:16;;;;;;;8.23;1.95;;;11.30;99.90;;;;;;5091530;28;20028;-87
2023/09/23 04:02:43;;;;;;;8.77;2.20;;;11.30;99.90;;;;;;5092900;28;20073;-85
2023/09/23 04:05:09;;;;;;;10.77;2.50;;;11.30;99.90;;;;;;5093618;28;20035;-86
2023/09/23 04:07:35;;;;;;;6.43;2.30;;;11.30;99.90;;;;;;5092711;28;20016;-86
2023/09/23 04:10:00;;;;;;;9.90;2.35;;;11.30;99.90;;;;;;5091500;28;20693;-86
2023/09/23 04:12:26;;;;;;;9.35;2.40;;;11.30;99.90;;;;;;5091316;28;20020;-86
2023/09/23 04:14:51;;;;;;;8.25;1.90;;;11.30;99.90;;;;;;5091177;28;20075;-87
2023/09/23 04:17:17;;;;;;;4.80;2.05;;;11.20;99.90;;;;;;5092390;28;20078;-86
2023/09/23 04:19:42;;;;;;;9.15;2.17;;;11.20;99.90;;;;;;5092481;28;20020;-85
2023/09/23 04:22:11;;;;;;;9.60;2.47;;;11.20;99.90;;;;;;5093286;28;20028;-86
2023/09/23 04:24:36;;;;;;;5.38;1.88;;;11.10;99.90;;;;;;5091560;28;20456;-86
2023/09/23 04:27:02;;;;;;;10.70;2.30;;;11.10;99.90;;;;;;5091157;28;20540;-85
2023/09/23 04:29:30;;;;;;;8.65;2.00;;;11.00;99.90;;;;;;5090072;28;20052;-86
2023/09/23 04:31:56;;;;;;;10.75;2.40;;;11.00;99.90;;;;;;5090823;28;20021;-86
2023/09/23 04:34:24;;;;;;;9.20;1.88;;;11.00;99.90;;;;;;5090801;28;20023;-86
2023/09/23 04:36:49;;;;;;;6.77;2.10;;;11.10;99.90;;;;;;5090791;28;20024;-87
2023/09/23 04:39:16;;;;;;;9.68;2.50;;;11.00;99.90;;;;;;5090683;28;20476;-84
2023/09/23 04:41:42;;;;;;;11.90;2.10;;;11.00;99.90;;;;;;5091514;28;20047;-85
2023/09/23 04:44:08;;;;;;;7.85;3.05;;;11.10;99.90;;;;;;5091323;28;20032;-87
2023/09/23 04:46:34;;;;;;;9.60;2.38;;;11.10;99.90;;;;;;5092006;28;20028;-86
2023/09/23 04:49:00;;;;;;;4.55;2.10;;;11.00;99.90;;;;;;5090596;28;20028;-86
2023/09/23 04:51:26;;;;;;;9.73;2.53;;;11.10;99.90;;;;;;5089430;28;20054;-87
2023/09/23 04:53:52;;;;;;;10.75;2.47;;;11.10;99.90;;;;;;5091814;28;20068;-86
2023/09/23 04:56:18;;;;;;;7.07;2.42;;;11.00;99.90;;;;;;5090639;28;20016;-86
2023/09/23 04:58:44;;;;;;;11.10;2.65;;;11.10;99.90;;;;;;5092486;28;20046;-86
2023/09/23 05:01:12;;;;;;;8.82;2.67;;;11.10;99.90;;;;;;5092451;28;20023;-87
2023/09/23 05:03:37;;;;;;;7.47;2.53;;;11.00;99.90;;;;;;5090400;28;20046;-87
2023/09/23 05:06:05;;;;;;;8.10;2.47;;;11.00;99.90;;;;;;5090514;28;20387;-86
2023/09/23 05:08:32;;;;;;;4.63;2.30;;;11.00;99.90;;;;;;5090203;28;20020;-85
2023/09/23 05:10:58;;;;;;;8.10;2.25;;;11.00;99.90;;;;;;5091435;28;20027;-85
2023/09/23 05:13:24;;;;;;;8.32;2.42;;;11.00;99.90;;;;;;5091330;28;20036;-85
2023/09/23 05:15:50;;;;;;;8.75;2.17;;;11.10;99.90;;;;;;5091359;28;20016;-86
2023/09/23 05:18:17;;;;;;;4.68;2.10;;;11.10;99.90;;;;;;5089940;28;20169;-87
2023/09/23 05:20:43;;;;;;;5.20;2.00;;;11.10;99.90;;;;;;5090873;28;20495;-87
2023/09/23 05:23:09;;;;;;;5.95;2.05;;;11.20;99.90;;;;;;5090008;28;20100;-86
2023/09/23 05:25:36;;;;;;;13.02;2.30;;;11.10;99.90;;;;;;5091146;28;20028;-86
2023/09/23 05:28:04;;;;;;;7.65;2.35;;;11.10;99.90;;;;;;5089891;28;20037;-86
2023/09/23 05:30:29;;;;;;;8.68;2.25;;;11.10;99.90;;;;;;5091114;28;20032;-84
2023/09/23 05:32:55;;;;;;;10.70;2.35;;;11.00;99.90;;;;;;5090824;28;20032;-86
2023/09/23 05:35:20;;;;;;;12.43;2.38;;;11.00;99.90;;;;;;5089733;28;20082;-86
2023/09/23 05:37:47;;;;;;;7.25;2.13;;;11.00;99.90;;;;;;5091217;28;20024;-85
2023/09/23 05:42:48;;;;;;;7.10;2.13;;;11.00;99.90;;;;;;5089348;28;20024;-85
2023/09/23 05:45:15;;;;;;;10.63;2.63;;;10.90;99.90;;;;;;5090628;28;20032;-85
2023/09/23 05:47:45;;;;;;;9.93;2.50;;;10.90;99.90;;;;;;5090394;28;20506;-86
2023/09/23 05:50:10;;;;;;;12.57;2.70;;;10.90;99.90;;;;;;5089119;28;20027;-86
2023/09/23 05:52:39;;;;;;;7.78;2.38;;;10.90;99.90;;;;;;5089063;28;20295;-86
2023/09/23 05:55:05;;;;;;;;;;;11.00;99.90;;;;;;5089981;28;20077;-87
2023/09/23 05:57:31;;;;;;;10.88;3.13;;;10.90;99.90;;;;;;5090708;28;19919;-87
2023/09/23 05:59:57;;;;;;;10.75;2.30;;;10.80;99.90;;;;;;5090076;28;20024;-86
2023/09/23 06:02:23;;;;;;;8.48;2.20;;;10.80;99.90;;;;;;5090494;28;20024;-86
2023/09/23 06:04:49;;;;;;;7.18;2.58;;;10.80;99.90;;;;;;5090289;28;20016;-86
2023/09/23 06:07:14;;;;;;;8.27;2.65;;;10.80;99.90;;;;;;5089795;28;20035;-87
2023/09/23 06:09:44;;;;;;;7.93;2.20;;;10.80;99.90;;;;;;5089981;28;20029;-87
2023/09/23 06:12:10;;;;;;;12.32;3.03;;;10.80;99.90;;;;;;5088860;28;20369;-86
2023/09/23 06:14:36;;;;;;;7.35;2.17;;;10.90;99.90;;;;;;5090169;28;20088;-85
2023/09/23 06:17:01;;;;;;;11.55;2.65;;;10.90;99.90;;;;;;5090226;28;20068;-87
2023/09/23 06:19:27;;;;;;;9.27;2.33;;;11.00;99.90;;;;;;5090270;28;20035;-85
2023/09/23 06:21:54;;;;;;;9.63;2.20;;;11.00;99.90;;;;;;5090247;28;20016;-86
2023/09/23 06:24:20;;;;;;;8.90;2.10;;;11.00;99.90;;;;;;5090007;28;20035;-86
2023/09/23 06:26:46;;;;;;;8.32;2.20;;;11.10;99.90;;;;;;5090451;28;20177;-86
2023/09/23 06:29:14;;;;;;;14.20;2.40;;;11.10;99.90;;;;;;5090058;28;20446;-86
2023/09/23 06:31:40;;;;;;;14.35;2.55;;;11.10;99.90;;;;;;5089984;28;20365;-87
2023/09/23 06:34:06;;;;;;;6.53;2.10;;;11.10;99.90;;;;;;5089790;28;20097;-85
2023/09/23 06:36:32;;;;;;;12.90;2.58;;;11.00;99.90;;;;;;5088711;28;20023;-86
2023/09/23 06:38:57;;;;;;;10.30;2.63;;;11.00;99.90;;;;;;5088695;28;20031;-86
2023/09/23 06:41:23;;;;;;;11.95;2.25;;;11.10;99.90;;;;;;5089450;28;20023;-87
2023/09/23 06:43:49;;;;;;;8.68;2.38;;;11.20;99.90;;;;;;5090780;28;20050;-88
2023/09/23 06:46:14;;;;;;;7.97;2.30;;;11.20;99.90;;;;;;5090270;28;20423;-84
2023/09/23 06:48:41;;;;;;;10.52;2.42;;;11.30;99.90;;;;;;5089942;28;20026;-86
2023/09/23 06:51:07;;;;;;;14.65;3.05;;;11.30;99.90;;;;;;5088433;28;20488;-87
2023/09/23 06:53:33;;;;;;;9.13;1.80;;;11.30;99.90;;;;;;5089638;28;20032;-86
2023/09/23 06:55:58;;;;;;;8.77;2.47;;;11.30;99.90;;;;;;5089289;28;20424;-84
2023/09/23 06:58:24;;;;;;;9.95;2.80;;;11.40;99.90;;;;;;5088627;28;20032;-84
2023/09/23 07:00:50;;;;;;;11.75;2.53;;;11.40;99.90;;;;;;5090037;28;20462;-83
2023/09/23 07:03:15;;;;;;;7.95;2.60;;;11.50;99.90;;;;;;5090344;28;20028;-86
2023/09/23 07:05:42;;;;;;;6.78;2.20;;;11.60;99.90;;;;;;5089060;28;20020;-84
2023/09/23 07:08:08;;;;;;;13.48;2.65;;;11.60;99.90;;;;;;5089050;28;20039;-85
2023/09/23 07:10:38;;;;;;;9.13;2.30;;;11.60;99.90;;;;;;5087664;28;20020;-84
2023/09/23 07:13:05;;;;;;;11.98;2.83;;;11.70;99.90;;;;;;5088334;28;20035;-86
2023/09/23 07:15:35;;;;;;;15.05;2.50;;;11.70;99.90;;;;;;5088326;28;20421;-85
2023/09/23 07:18:01;;;;;;;10.23;2.60;;;11.70;99.90;;;;;;5089186;28;20020;-86
2023/09/23 07:20:27;;;;;;;8.18;2.55;;;11.80;99.90;;;;;;5088070;28;20028;-86
2023/09/23 07:22:52;;;;;;;10.93;2.38;;;11.80;99.90;;;;;;5089362;28;20024;-86
2023/09/23 07:25:18;;;;;;;8.50;2.13;;;11.90;99.90;;;;;;5089912;28;20392;-88
2023/09/23 07:27:43;;;;;;;9.68;2.55;;;12.00;99.90;;;;;;5089557;28;20032;-87
2023/09/23 07:30:09;;;;;;;8.95;2.35;;;12.00;99.90;;;;;;5089478;28;20026;-86
2023/09/23 07:32:35;;;;;;;11.13;2.17;;;12.10;99.90;;;;;;5087495;28;20039;-87
2023/09/23 07:35:01;;;;;;;9.95;2.78;;;12.10;99.90;;;;;;5086694;28;20054;-86
2023/09/23 07:37:26;;;;;;;9.82;2.70;;;12.20;99.90;;;;;;5089060;28;20382;-85
2023/09/23 07:39:52;;;;;;;4.78;2.15;;;12.30;99.90;;;;;;5089873;28;20024;-88
2023/09/23 07:42:18;;;;;;;10.25;2.33;;;12.30;99.90;;;;;;5088806;28;20028;-84
2023/09/23 07:44:43;;;;;;;10.63;2.63;;;12.40;99.90;;;;;;5088540;28;20119;-84
2023/09/23 07:47:09;;;;;;;8.02;2.38;;;12.50;99.90;;;;;;5088841;28;20028;-85
2023/09/23 07:49:35;;;;;;;9.45;2.20;;;12.60;99.90;;;;;;5105210;28;20059;-82
2023/09/23 07:52:00;;;;;;;12.50;2.35;;;12.70;99.90;;;;;;5095450;28;20019;-83
2023/09/23 07:54:26;;;;;;;12.10;2.22;;;12.80;99.90;;;;;;5096209;28;20031;-82
2023/09/23 07:56:52;;;;;;;9.68;2.17;;;12.80;99.90;;;;;;5089625;28;20024;-84
2023/09/23 07:59:17;;;;;;;10.15;2.92;;;12.90;99.90;;;;;;5089816;28;20157;-82
2023/09/23 08:01:43;;;;;;;7.97;2.58;;;13.00;99.90;;;;;;5104883;28;20069;-84
2023/09/23 08:04:08;;;;;;;12.57;2.40;;;13.00;99.90;;;;;;5108854;28;20027;-86
2023/09/23 08:06:34;;;;;;;10.23;2.50;;;13.10;99.90;;;;;;5100238;28;20020;-84
2023/09/23 08:09:00;;;;;;;10.50;2.60;;;13.10;99.90;;;;;;5089525;28;20109;-84
2023/09/23 08:11:26;;;;;;;8.73;2.10;;;13.30;99.90;;;;;;5092629;28;20103;-83
2023/09/23 08:13:52;;;;;;;9.40;2.35;;;13.30;99.90;;;;;;5104615;28;20042;-82
2023/09/23 08:16:18;;;;;;;10.88;2.55;;;13.40;99.90;;;;;;5112715;28;20019;-85
2023/09/23 08:18:43;;;;;;;7.38;2.17;;;13.40;99.90;;;;;;5082229;28;20439;-84
2023/09/23 08:21:09;;;;;;;6.85;2.15;;;13.50;99.90;;;;;;5071660;28;20046;-85
2023/09/23 08:23:34;;;;;;;10.15;2.10;;;13.60;99.90;;;;;;5076937;28;20032;-84
2023/09/23 08:26:00;;;;;;;11.45;2.53;;;13.60;99.90;;;;;;5092623;28;20486;-88
2023/09/23 08:28:26;;;;;;;7.18;2.40;;;13.80;99.90;;;;;;5091940;28;20027;-82
2023/09/23 08:30:52;;;;;;;8.73;2.38;;;13.80;99.90;;;;;;5093461;28;20020;-88
2023/09/23 08:33:17;;;;;;;6.53;2.03;;;13.90;99.90;;;;;;5092570;28;20063;-90
2023/09/23 08:35:47;;;;;;;10.30;2.00;;;13.90;99.90;;;;;;5091181;28;20051;-87
2023/09/23 08:38:13;;;;;;;7.10;2.25;;;14.00;99.90;;;;;;5091587;28;20398;-86
2023/09/23 08:40:39;;;;;;;10.48;2.17;;;14.10;99.90;;;;;;5091198;28;20116;-85
2023/09/23 08:43:06;;;;;;;9.68;2.10;;;14.10;99.90;;;;;;5080111;28;20490;-86
2023/09/23 08:45:32;;;;;;;10.23;2.10;;;14.20;99.90;;;;;;5070425;28;20037;-89
2023/09/23 08:47:58;;;;;;;10.05;2.22;;;14.30;99.90;;;;;;5071696;28;20419;-86
2023/09/23 08:50:25;;;;;;;9.60;2.38;;;14.30;99.90;;;;;;5072767;28;20030;-88
2023/09/23 08:52:52;;;;;;;11.52;2.08;;;14.40;99.90;;;;;;5071787;28;20029;-86
2023/09/23 08:55:19;;;;;;;9.50;1.98;;;14.40;99.90;;;;;;5071973;28;20040;-90
2023/09/23 08:57:45;;;;;;;6.78;2.08;;;14.40;99.90;;;;;;5071575;28;20040;-87
2023/09/23 09:00:13;;;;;;;11.00;2.45;;;14.50;99.90;;;;;;5082928;28;20020;-86
2023/09/23 09:02:39;;;;;;;11.63;3.10;;;14.60;99.90;;;;;;5090981;28;20042;-86
2023/09/23 09:05:04;;;;;;;12.57;2.58;;;14.70;99.90;;;;;;5091536;28;20503;-88
2023/09/23 09:07:37;;;;;;;5.75;2.20;;;14.90;99.90;;;;;;5091322;28;20482;-87
2023/09/23 09:10:04;;;;;;;9.35;2.63;;;15.00;99.90;;;;;;5108512;28;20072;-86
2023/09/23 09:12:34;;;;;;;9.40;2.53;;;15.10;99.90;;;;;;5113629;28;20053;-85
2023/09/23 09:15:00;;;;;;;11.93;2.17;;;15.20;99.90;;;;;;5111910;28;20023;-85
2023/09/23 09:17:25;;;;;;;8.90;2.08;;;15.30;99.90;;;;;;5097598;28;20483;-86
2023/09/23 09:19:51;;;;;;;13.93;2.50;;;15.40;99.90;;;;;;5090362;28;20031;-85
2023/09/23 09:22:19;;;;;;;11.65;2.25;;;15.50;99.90;;;;;;5089811;28;20024;-88
2023/09/23 09:24:46;;;;;;;7.47;2.05;;;15.40;99.90;;;;;;5090907;28;20035;-86
2023/09/23 09:27:15;;;;;;;4.53;2.03;;;15.50;99.90;;;;;;5090971;28;20023;-86
2023/09/23 09:29:42;;;;;;;9.02;2.25;;;15.60;99.90;;;;;;5090892;28;20020;-84
2023/09/23 09:32:09;;;;;;;9.80;2.03;;;15.70;99.90;;;;;;5090648;28;20032;-87
2023/09/23 09:34:47;;;;;;;10.00;2.00;;;15.80;99.90;;;;;;5089703;28;20097;-86
2023/09/23 09:37:14;;;;;;;8.35;2.00;;;15.90;99.90;;;;;;5085641;28;20503;-87
2023/09/23 09:39:50;;;;;;;6.90;1.98;;;16.00;99.90;;;;;;5089829;28;20510;-84
2023/09/23 09:42:23;;;;;;;6.70;2.25;;;16.00;99.90;;;;;;5089557;28;20028;-88
2023/09/23 09:44:54;;;;;;;11.75;2.00;;;16.20;99.90;;;;;;5090907;28;20075;-84
2023/09/23 09:47:20;;;;;;;5.95;2.03;;;16.20;99.90;;;;;;5089852;28;20659;-85
2023/09/23 09:49:46;;;;;;;9.43;2.53;;;16.20;99.90;;;;;;5090741;28;20111;-86
2023/09/23 09:52:13;;;;;;;9.38;1.92;;;16.10;99.90;;;;;;5090014;28;20115;-87
2023/09/23 09:54:40;;;;;;;9.20;2.00;;;16.10;99.90;;;;;;5090697;28;20024;-90
2023/09/23 09:57:07;;;;;;;5.40;1.88;;;16.10;99.90;;;;;;5095956;28;20035;-87
2023/09/23 09:59:33;;;;;;;8.23;2.00;;;16.20;99.90;;;;;;5090525;28;20058;-88
2023/09/23 10:02:01;;;;;;;6.47;1.98;;;16.20;99.90;;;;;;5093987;28;20487;-87
2023/09/23 10:04:34;;;;;;;;;;;16.20;99.90;;;;;;5093442;28;20509;-87
2023/09/23 10:07:00;;;;;;;6.88;2.50;;;16.20;99.90;;;;;;5088837;28;19910;-89
2023/09/23 10:09:27;;;;;;;8.05;1.85;;;16.20;99.90;;;;;;5070982;28;20021;-86
2023/09/23 10:11:54;;;;;;;4.88;1.80;;;16.20;99.90;;;;;;5079864;28;20449;-85
2023/09/23 10:14:20;;;;;;;4.88;1.90;;;16.30;99.90;;;;;;5069971;28;20437;-88
2023/09/23 10:17:05;;;;;;;6.72;2.28;;;16.40;99.90;;;;;;5068863;28;20025;-88
2023/09/23 10:19:38;;;;;;;4.47;1.90;;;16.40;99.90;;;;;;5073062;28;20031;-86
2023/09/23 10:22:09;;;;;;;5.45;1.75;;;16.50;99.90;;;;;;5089817;28;20111;-88
2023/09/23 10:24:35;;;;;;;5.18;2.00;;;16.60;99.90;;;;;;5088454;28;20067;-85
2023/09/23 10:27:05;;;;;;;4.22;1.70;;;16.60;99.90;;;;;;5090813;28;20044;-88
2023/09/23 10:29:47;;;;;;;4.75;1.77;;;16.80;99.90;;;;;;5090498;28;20035;-83
2023/09/23 10:32:17;;;;;;;4.63;2.22;;;16.80;99.90;;;;;;5109456;28;20027;-83
2023/09/23 10:34:53;;;;;;;6.70;1.90;;;16.90;99.90;;;;;;5075736;28;20416;-85
2023/09/23 10:37:24;;;;;;;7.22;1.90;;;16.90;99.90;;;;;;5089782;28;20020;-84
2023/09/23 10:39:50;;;;;;;8.00;2.03;;;16.90;99.90;;;;;;5091120;28;20103;-83
2023/09/23 10:42:16;;;;;;;6.00;2.00;;;16.90;99.90;;;;;;5076028;28;20109;-84
2023/09/23 10:44:41;;;;;;;4.88;1.65;;;16.90;99.90;;;;;;5067901;28;20032;-86
2023/09/23 10:47:08;;;;;;;5.35;1.92;;;16.90;99.90;;;;;;5083719;28;20028;-85
2023/09/23 10:49:35;;;;;;;4.47;2.08;;;16.90;99.90;;;;;;5089438;28;20077;-86
2023/09/23 10:52:01;;;;;;;6.10;1.85;;;17.00;99.90;;;;;;5088977;28;20059;-84
2023/09/23 10:54:27;;;;;;;6.82;1.77;;;16.90;99.90;;;;;;5089714;28;20036;-83
2023/09/23 10:56:53;;;;;;;5.63;1.90;;;16.80;99.90;;;;;;5089367;28;20483;-83
2023/09/23 10:59:19;;;;;;;4.70;1.80;;;17.00;99.90;;;;;;5088907;28;20126;-83
2023/09/23 11:01:45;;;;;;;5.65;2.03;;;17.00;99.90;;;;;;5101486;28;20369;-83
2023/09/23 11:04:11;;;;;;;4.68;2.00;;;17.00;99.90;;;;;;5087915;28;20475;-84
2023/09/23 11:06:37;;;;;;;3.50;1.75;;;17.10;99.90;;;;;;5099405;28;20019;-87
2023/09/23 11:09:05;;;;;;;4.85;1.92;;;17.10;99.90;;;;;;5110403;28;20030;-84
2023/09/23 11:11:36;;;;;;;7.20;2.10;;;17.00;99.90;;;;;;5110005;28;20023;-83
2023/09/23 11:14:09;;;;;;;4.65;1.92;;;17.10;99.90;;;;;;5088436;28;20381;-84
2023/09/23 11:16:35;;;;;;;3.38;1.63;;;17.20;99.90;;;;;;5088797;28;20614;-84
2023/09/23 11:19:07;;;;;;;3.50;1.70;;;17.20;99.90;;;;;;5089592;28;20107;-83
2023/09/23 11:21:46;;;;;;;5.95;2.30;;;17.20;99.90;;;;;;5088421;28;20392;-83
2023/09/23 11:24:14;;;;;;;4.78;2.00;;;17.20;99.90;;;;;;5089131;28;20035;-84
2023/09/23 11:26:41;;;;;;;4.88;1.80;;;17.30;99.90;;;;;;5089096;28;20022;-82
2023/09/23 11:29:07;;;;;;;3.15;1.65;;;17.30;99.90;;;;;;5088573;28;20060;-83
2023/09/23 11:31:34;;;;;;;4.82;1.73;;;17.40;99.90;;;;;;5089660;28;20020;-86
2023/09/23 11:33:59;;;;;;;5.53;2.15;;;17.30;99.90;;;;;;5087469;28;20494;-83
2023/09/23 11:36:25;;;;;;;6.10;1.77;;;17.30;99.90;;;;;;5087160;28;20036;-85
2023/09/23 11:38:51;;;;;;;5.03;1.95;;;17.30;99.90;;;;;;5088717;28;20031;-83
2023/09/23 11:41:17;;;;;;;5.22;1.90;;;17.30;99.90;;;;;;5088932;28;20453;-83
2023/09/23 11:43:43;;;;;;;6.47;1.85;;;17.30;99.90;;;;;;5089475;28;20030;-84
2023/09/23 11:46:09;;;;;;;6.65;2.05;;;17.30;99.90;;;;;;5091502;28;20047;-84
2023/09/23 11:48:35;;;;;;;4.95;2.35;;;17.40;99.90;;;;;;5090873;28;20063;-82
2023/09/23 11:51:01;;;;;;;5.13;2.10;;;17.20;99.90;;;;;;5091634;28;20437;-84
2023/09/23 11:53:27;;;;;;;7.03;2.00;;;17.30;99.90;;;;;;5090390;28;20036;-85
2023/09/23 11:55:53;;;;;;;5.45;1.95;;;17.50;99.90;;;;;;5091463;28;20081;-84
2023/09/23 11:58:23;;;;;;;6.05;1.95;;;17.50;99.90;;;;;;5091173;28;20032;-82
2023/09/23 12:00:48;;;;;;;4.95;1.90;;;17.60;99.90;;;;;;5089697;28;20116;-82
2023/09/23 12:03:18;;;;;;;3.92;1.83;;;17.70;99.90;;;;;;5089941;28;20110;-83
2023/09/23 12:05:44;;;;;;;7.97;1.98;;;17.70;99.90;;;;;;5088900;28;20510;-83
2023/09/23 12:08:10;;;;;;;5.88;2.00;;;17.80;99.90;;;;;;5090872;28;20074;-83
2023/09/23 12:10:36;;;;;;;6.53;2.00;;;17.90;99.90;;;;;;5090472;28;20031;-83
2023/09/23 12:13:02;;;;;;;3.83;1.65;;;17.90;99.90;;;;;;5091052;28;20028;-83
2023/09/23 12:15:30;;;;;;;6.05;2.38;;;17.90;99.90;;;;;;5090924;28;20035;-84
2023/09/23 12:17:56;;;;;;;5.13;2.00;;;18.00;99.90;;;;;;5090817;28;20024;-82
2023/09/23 12:20:22;;;;;;;5.53;2.00;;;17.80;99.90;;;;;;5090716;28;20107;-82
2023/09/23 12:22:48;;;;;;;7.22;2.60;;;17.90;99.90;;;;;;5090348;28;20076;-82
2023/09/23 12:25:15;;;;;;;6.05;2.30;;;18.00;99.90;;;;;;5090588;28;20114;-83
2023/09/23 12:27:40;;;;;;;6.28;2.35;;;18.10;99.90;;;;;;5089316;28;20552;-82
2023/09/23 12:30:06;;;;;;;7.25;2.72;;;18.20;99.90;;;;;;5091458;28;20020;-82
2023/09/23 12:32:33;;;;;;;5.13;2.40;;;18.30;99.90;;;;;;5090474;28;20400;-82
2023/09/23 12:34:58;;;;;;;7.88;2.25;;;18.30;99.90;;;;;;5090271;28;20345;-84
2023/09/23 12:37:27;;;;;;;8.32;2.30;;;18.40;99.90;;;;;;5090236;28;20491;-84
2023/09/23 12:39:55;;;;;;;6.25;2.20;;;18.40;99.90;;;;;;5088501;28;20028;-83
2023/09/23 12:42:21;;;;;;;6.20;2.22;;;18.40;99.90;;;;;;5090382;28;20479;-87
2023/09/23 12:44:47;;;;;;;5.28;2.10;;;18.40;99.90;;;;;;5088941;28;20032;-85
2023/09/23 12:47:13;;;;;;;4.90;2.33;;;18.30;99.90;;;;;;5089271;28;20077;-85